createdAt,value
2023-05-07T00:02:19.762Z,13.60
2023-05-07T00:04:46.971Z,13.60
2023-05-07T00:07:14.118Z,13.60
2023-05-07T00:09:41.377Z,13.60
2023-05-07T00:12:09.042Z,13.60
2023-05-07T00:14:36.180Z,13.60
2023-05-07T00:17:03.618Z,13.60
2023-05-07T00:19:30.832Z,13.60
2023-05-07T00:21:58.015Z,13.50
2023-05-07T00:24:25.555Z,13.60
2023-05-07T00:26:53.730Z,13.50
2023-05-07T00:29:21.054Z,13.50
2023-05-07T00:31:50.341Z,13.50
2023-05-07T00:34:17.408Z,13.50
2023-05-07T00:36:44.598Z,13.40
2023-05-07T00:39:11.741Z,13.40
2023-05-07T00:41:38.719Z,13.40
2023-05-07T00:44:05.784Z,13.30
2023-05-07T00:46:34.329Z,13.30
2023-05-07T00:49:01.991Z,13.30
2023-05-07T00:51:30.148Z,13.30
2023-05-07T00:53:57.318Z,13.20
2023-05-07T00:56:25.794Z,13.20
2023-05-07T00:58:53.033Z,13.20
2023-05-07T01:01:20.333Z,13.10
2023-05-07T01:03:47.433Z,13.10
2023-05-07T01:06:17.806Z,13.10
2023-05-07T01:08:46.685Z,13.00
2023-05-07T01:11:15.182Z,13.00
2023-05-07T01:13:42.841Z,12.90
2023-05-07T01:16:10.938Z,12.90
2023-05-07T01:18:38.163Z,12.80
2023-05-07T01:21:06.708Z,12.70
2023-05-07T01:23:36.567Z,12.70
2023-05-07T01:26:03.853Z,12.70
2023-05-07T01:28:33.057Z,12.60
2023-05-07T01:31:06.860Z,12.60
2023-05-07T01:33:37.842Z,12.50
2023-05-07T01:36:08.194Z,12.50
2023-05-07T01:38:36.379Z,12.50
2023-05-07T01:41:03.918Z,12.40
2023-05-07T01:43:31.874Z,12.30
2023-05-07T01:46:00.148Z,12.30
2023-05-07T01:48:27.700Z,12.30
2023-05-07T01:50:55.778Z,12.30
2023-05-07T01:53:22.915Z,12.20
2023-05-07T01:55:49.873Z,12.20
2023-05-07T01:58:17.545Z,12.20
2023-05-07T02:00:44.602Z,12.10
2023-05-07T02:03:11.655Z,12.10
2023-05-07T02:05:52.789Z,12.10
2023-05-07T02:08:27.896Z,12.10
2023-05-07T02:10:55.367Z,12.00
2023-05-07T02:13:23.809Z,12.00
2023-05-07T02:15:51.605Z,12.00
2023-05-07T02:18:19.171Z,12.00
2023-05-07T02:20:46.318Z,12.00
2023-05-07T02:23:13.444Z,12.00
2023-05-07T02:25:40.779Z,11.90
2023-05-07T02:28:07.976Z,11.90
2023-05-07T02:31:01.819Z,11.90
2023-05-07T02:33:30.244Z,11.90
2023-05-07T02:35:57.506Z,11.90
2023-05-07T02:38:24.748Z,11.80
2023-05-07T02:40:51.745Z,11.80
2023-05-07T02:43:18.850Z,11.70
2023-05-07T02:45:48.682Z,11.70
2023-05-07T02:48:16.348Z,11.70
2023-05-07T02:50:43.693Z,11.70
2023-05-07T02:53:12.918Z,11.70
2023-05-07T02:55:39.904Z,11.70
2023-05-07T02:58:06.948Z,11.70
2023-05-07T03:00:36.510Z,11.60
2023-05-07T03:03:38.657Z,11.60
2023-05-07T03:06:06.007Z,11.60
2023-05-07T03:08:33.622Z,11.50
2023-05-07T03:11:00.847Z,11.50
2023-05-07T03:13:28.017Z,11.50
2023-05-07T03:15:55.102Z,11.50
2023-05-07T03:18:22.232Z,11.50
2023-05-07T03:20:49.959Z,11.50
2023-05-07T03:23:18.610Z,11.50
2023-05-07T03:25:45.739Z,11.50
2023-05-07T03:28:13.039Z,11.40
2023-05-07T03:30:46.537Z,11.40
2023-05-07T03:33:13.581Z,11.40
2023-05-07T03:35:41.324Z,11.40
2023-05-07T03:38:08.656Z,11.40
2023-05-07T03:40:37.559Z,11.40
2023-05-07T03:43:06.046Z,11.40
2023-05-07T03:45:35.822Z,11.40
2023-05-07T03:48:11.398Z,11.30
2023-05-07T03:50:39.277Z,11.30
2023-05-07T03:53:07.232Z,11.30
2023-05-07T03:55:38.330Z,11.40
2023-05-07T03:58:05.510Z,11.30
2023-05-07T04:00:35.092Z,11.30
2023-05-07T04:03:02.214Z,11.30
2023-05-07T04:05:32.306Z,11.30
2023-05-07T04:08:03.289Z,11.30
2023-05-07T04:10:39.528Z,11.30
2023-05-07T04:13:11.763Z,11.30
2023-05-07T04:15:39.115Z,11.30
2023-05-07T04:18:09.953Z,11.30
2023-05-07T04:20:38.590Z,11.30
2023-05-07T04:23:09.849Z,11.30
2023-05-07T04:25:37.654Z,11.30
2023-05-07T04:28:13.552Z,11.30
2023-05-07T04:30:42.228Z,11.30
2023-05-07T04:33:10.146Z,11.30
2023-05-07T04:35:38.225Z,11.30
2023-05-07T04:38:06.577Z,11.30
2023-05-07T04:40:33.845Z,11.30
2023-05-07T04:43:02.591Z,11.30
2023-05-07T04:45:33.545Z,11.30
2023-05-07T04:48:00.862Z,11.30
2023-05-07T04:50:28.590Z,11.40
2023-05-07T04:52:59.950Z,11.40
2023-05-07T04:55:27.079Z,11.40
2023-05-07T04:57:54.467Z,11.40
2023-05-07T05:00:22.350Z,11.40
2023-05-07T05:02:51.293Z,11.50
2023-05-07T05:05:21.220Z,11.40
2023-05-07T05:07:52.593Z,11.50
2023-05-07T05:10:20.803Z,11.50
2023-05-07T05:12:50.799Z,11.50
2023-05-07T05:15:18.071Z,11.50
2023-05-07T05:17:45.479Z,11.50
2023-05-07T05:20:13.266Z,11.40
2023-05-07T05:22:43.230Z,11.50
2023-05-07T05:25:12.100Z,11.50
2023-05-07T05:27:39.245Z,11.50
2023-05-07T05:30:07.459Z,11.50
2023-05-07T05:32:36.069Z,11.50
2023-05-07T05:35:03.204Z,11.60
2023-05-07T05:37:32.271Z,11.60
2023-05-07T05:40:01.551Z,11.70
2023-05-07T05:42:30.414Z,11.80
2023-05-07T05:44:57.576Z,11.80
2023-05-07T05:47:25.909Z,11.80
2023-05-07T05:49:55.672Z,11.90
2023-05-07T05:52:24.835Z,12.00
2023-05-07T05:54:52.226Z,12.00
2023-05-07T05:57:20.572Z,12.10
2023-05-07T05:59:48.451Z,12.10
2023-05-07T06:02:15.859Z,12.20
2023-05-07T06:04:43.799Z,12.20
2023-05-07T06:07:12.691Z,12.30
2023-05-07T06:09:39.610Z,12.30
2023-05-07T06:12:06.963Z,12.40
2023-05-07T06:14:34.556Z,12.40
2023-05-07T06:17:01.817Z,12.50
2023-05-07T06:19:33.432Z,12.40
2023-05-07T06:22:02.768Z,12.50
2023-05-07T06:24:31.359Z,12.50
2023-05-07T06:26:59.453Z,12.50
2023-05-07T06:29:27.897Z,12.50
2023-05-07T06:31:55.272Z,12.50
2023-05-07T06:34:23.691Z,12.50
2023-05-07T06:36:51.166Z,12.50
2023-05-07T06:39:29.005Z,12.50
2023-05-07T06:41:56.237Z,12.50
2023-05-07T06:44:27.755Z,12.40
2023-05-07T06:47:08.193Z,12.40
2023-05-07T06:49:36.238Z,12.50
2023-05-07T06:52:03.499Z,12.50
2023-05-07T06:54:30.975Z,12.50
2023-05-07T06:56:58.702Z,12.60
2023-05-07T06:59:27.855Z,12.70
2023-05-07T07:01:55.616Z,12.70
2023-05-07T07:04:26.402Z,12.80
2023-05-07T07:07:01.120Z,13.00
2023-05-07T07:09:29.285Z,13.30
2023-05-07T07:11:56.732Z,13.40
2023-05-07T07:14:24.647Z,13.50
2023-05-07T07:16:54.042Z,13.60
2023-05-07T07:19:22.859Z,13.60
2023-05-07T07:21:53.155Z,13.60
2023-05-07T07:24:22.228Z,13.70
2023-05-07T07:26:53.234Z,13.70
2023-05-07T07:29:21.665Z,13.70
2023-05-07T07:31:51.179Z,13.60
2023-05-07T07:34:19.908Z,13.60
2023-05-07T07:36:47.250Z,13.60
2023-05-07T07:39:17.825Z,13.60
2023-05-07T07:41:46.416Z,13.60
2023-05-07T07:44:16.054Z,13.70
2023-05-07T07:46:46.975Z,13.70
2023-05-07T07:49:15.724Z,13.90
2023-05-07T07:51:43.804Z,13.80
2023-05-07T07:54:12.162Z,14.00
2023-05-07T07:56:40.251Z,14.20
2023-05-07T07:59:08.567Z,14.30
2023-05-07T08:01:38.892Z,14.20
2023-05-07T08:04:06.935Z,14.40
2023-05-07T08:06:38.706Z,14.20
2023-05-07T08:09:06.927Z,14.30
2023-05-07T08:11:34.521Z,14.30
2023-05-07T08:14:02.616Z,14.30
2023-05-07T08:16:31.084Z,14.30
2023-05-07T08:18:59.567Z,14.30
2023-05-07T08:21:27.104Z,14.30
2023-05-07T08:23:54.612Z,14.50
2023-05-07T08:26:22.218Z,14.70
2023-05-07T08:28:49.604Z,14.70
2023-05-07T08:31:17.009Z,14.90
2023-05-07T08:33:45.948Z,15.00
2023-05-07T08:36:12.941Z,15.00
2023-05-07T08:38:43.699Z,15.20
2023-05-07T08:41:13.926Z,15.10
2023-05-07T08:43:48.833Z,15.20
2023-05-07T08:46:23.014Z,15.20
2023-05-07T08:48:54.280Z,15.50
2023-05-07T08:51:22.774Z,15.50
2023-05-07T08:53:51.359Z,15.50
2023-05-07T08:56:25.114Z,15.60
2023-05-07T08:58:57.664Z,15.70
2023-05-07T09:01:26.076Z,15.60
2023-05-07T09:03:54.770Z,15.70
2023-05-07T09:06:23.645Z,15.70
2023-05-07T09:08:52.590Z,15.70
2023-05-07T09:11:24.705Z,15.60
2023-05-07T09:14:00.543Z,15.90
2023-05-07T09:16:30.840Z,16.10
2023-05-07T09:19:04.171Z,16.30
2023-05-07T09:21:31.288Z,16.50
2023-05-07T09:24:00.586Z,16.60
2023-05-07T09:26:36.555Z,16.80
2023-05-07T09:29:05.658Z,16.80
2023-05-07T09:31:32.942Z,16.80
2023-05-07T09:34:01.749Z,16.90
2023-05-07T09:36:33.917Z,17.00
2023-05-07T09:39:01.628Z,17.10
2023-05-07T09:41:33.202Z,17.00
2023-05-07T09:44:12.305Z,17.10
2023-05-07T09:46:47.972Z,17.20
2023-05-07T09:52:02.409Z,17.50
2023-05-07T09:54:35.407Z,17.50
2023-05-07T09:57:04.425Z,17.70
2023-05-07T09:59:33.811Z,17.80
2023-05-07T10:02:05.426Z,17.90
2023-05-07T10:04:39.270Z,17.80
2023-05-07T10:07:08.096Z,17.80
2023-05-07T10:09:39.574Z,17.70
2023-05-07T10:12:10.934Z,17.80
2023-05-07T10:14:38.697Z,17.70
2023-05-07T10:17:07.440Z,17.80
2023-05-07T10:19:37.520Z,17.50
2023-05-07T10:22:07.316Z,17.50
2023-05-07T10:24:40.513Z,17.90
2023-05-07T10:27:15.811Z,17.90
2023-05-07T10:30:17.247Z,18.10
2023-05-07T10:32:49.691Z,18.30
2023-05-07T10:35:31.456Z,18.60
2023-05-07T10:38:00.329Z,18.50
2023-05-07T10:40:32.629Z,18.80
2023-05-07T10:43:10.971Z,18.60
2023-05-07T10:46:36.286Z,18.80
2023-05-07T10:49:24.686Z,18.70
2023-05-07T10:52:20.433Z,18.90
2023-05-07T10:55:18.400Z,19.10
2023-05-07T10:57:50.589Z,18.90
2023-05-07T11:00:38.858Z,19.00
2023-05-07T11:03:10.005Z,19.10
2023-05-07T11:06:16.103Z,19.30
2023-05-07T11:09:01.225Z,19.50
2023-05-07T11:11:53.605Z,19.60
2023-05-07T11:14:45.940Z,20.00
2023-05-07T11:17:17.520Z,20.60
2023-05-07T11:19:57.195Z,21.10
2023-05-07T11:22:44.621Z,21.60
2023-05-07T11:25:20.739Z,21.50
2023-05-07T11:27:54.038Z,21.30
2023-05-07T11:30:21.643Z,21.40
2023-05-07T11:32:49.933Z,21.10
2023-05-07T11:35:19.087Z,21.30
2023-05-07T11:37:49.717Z,21.30
2023-05-07T11:40:17.607Z,21.30
2023-05-07T11:42:44.961Z,21.20
2023-05-07T11:45:12.338Z,21.50
2023-05-07T11:47:42.507Z,22.00
2023-05-07T11:50:12.042Z,22.00
2023-05-07T11:52:40.145Z,21.70
2023-05-07T11:55:09.178Z,22.00
2023-05-07T11:57:39.644Z,21.50
2023-05-07T12:00:08.068Z,21.40
2023-05-07T12:02:41.116Z,21.40
2023-05-07T12:05:08.497Z,21.10
2023-05-07T12:07:36.099Z,21.40
2023-05-07T12:10:10.534Z,21.50
2023-05-07T12:12:43.218Z,21.40
2023-05-07T12:15:11.334Z,21.20
2023-05-07T12:17:39.522Z,21.00
2023-05-07T12:20:08.218Z,20.90
2023-05-07T12:22:35.651Z,21.10
2023-05-07T12:25:03.606Z,21.50
2023-05-07T12:27:31.620Z,21.60
2023-05-07T12:30:00.286Z,21.70
2023-05-07T12:32:27.450Z,21.60
2023-05-07T12:34:54.562Z,21.50
2023-05-07T12:37:26.055Z,21.70
2023-05-07T12:40:11.089Z,21.80
2023-05-07T12:42:41.154Z,21.60
2023-05-07T12:45:17.676Z,21.30
2023-05-07T12:47:49.637Z,21.40
2023-05-07T12:50:17.556Z,21.60
2023-05-07T12:52:49.274Z,21.30
2023-05-07T12:55:17.967Z,21.40
2023-05-07T12:57:49.707Z,21.40
2023-05-07T13:00:17.443Z,21.50
2023-05-07T13:02:46.475Z,21.40
2023-05-07T13:05:14.290Z,21.60
2023-05-07T13:07:42.159Z,21.50
2023-05-07T13:10:11.426Z,21.60
2023-05-07T13:12:38.707Z,21.70
2023-05-07T13:15:06.505Z,21.70
2023-05-07T13:17:33.777Z,22.00
2023-05-07T13:20:01.155Z,22.10
2023-05-07T13:22:28.368Z,22.10
2023-05-07T13:24:55.533Z,22.30
2023-05-07T13:27:22.723Z,22.50
2023-05-07T13:29:49.700Z,22.50
2023-05-07T13:32:16.685Z,22.40
2023-05-07T13:34:43.901Z,22.50
2023-05-07T13:37:12.270Z,22.30
2023-05-07T13:39:39.592Z,22.00
2023-05-07T13:42:06.736Z,21.70
2023-05-07T13:44:34.229Z,21.50
2023-05-07T13:47:01.592Z,21.30
2023-05-07T13:49:29.137Z,21.30
2023-05-07T13:51:56.751Z,21.00
2023-05-07T13:54:23.811Z,21.00
2023-05-07T13:56:50.820Z,20.90
2023-05-07T13:59:18.150Z,21.00
2023-05-07T14:01:45.300Z,21.20
2023-05-07T14:04:12.433Z,21.30
2023-05-07T14:06:40.106Z,21.10
2023-05-07T14:09:07.088Z,20.90
2023-05-07T14:11:35.970Z,21.10
2023-05-07T14:14:03.483Z,21.00
2023-05-07T14:16:30.760Z,20.90
2023-05-07T14:18:58.692Z,20.80
2023-05-07T14:21:26.234Z,20.70
2023-05-07T14:23:53.344Z,20.80
2023-05-07T14:26:21.731Z,20.60
2023-05-07T14:28:48.958Z,20.70
2023-05-07T14:31:16.317Z,20.40
2023-05-07T14:33:43.622Z,20.40
2023-05-07T14:36:10.796Z,20.50
2023-05-07T14:38:37.986Z,20.50
2023-05-07T14:41:05.359Z,20.60
2023-05-07T14:43:32.567Z,20.50
2023-05-07T14:45:59.590Z,20.40
2023-05-07T14:48:26.686Z,20.40
2023-05-07T14:50:53.816Z,20.20
2023-05-07T14:53:20.911Z,20.00
2023-05-07T14:55:49.294Z,20.10
2023-05-07T14:58:16.425Z,20.30
2023-05-07T15:00:43.572Z,20.20
2023-05-07T15:03:11.931Z,20.20
2023-05-07T15:05:42.471Z,20.20
2023-05-07T15:08:09.578Z,20.20
2023-05-07T15:10:41.971Z,20.00
2023-05-07T15:13:14.543Z,20.20
2023-05-07T15:15:44.836Z,20.30
2023-05-07T15:18:11.881Z,20.20
2023-05-07T15:20:38.946Z,20.30
2023-05-07T15:23:10.602Z,20.70
2023-05-07T15:25:38.876Z,21.20
2023-05-07T15:28:06.492Z,21.40
2023-05-07T15:30:34.590Z,21.60
2023-05-07T15:33:03.933Z,21.60
2023-05-07T15:35:31.189Z,21.20
2023-05-07T15:37:58.577Z,21.00
2023-05-07T15:40:25.825Z,21.00
2023-05-07T15:42:57.082Z,21.10
2023-05-07T15:45:25.191Z,21.30
2023-05-07T15:47:52.351Z,21.30
2023-05-07T15:50:19.504Z,21.30
2023-05-07T15:52:47.491Z,21.30
2023-05-07T15:55:15.071Z,21.50
2023-05-07T15:57:42.141Z,21.60
2023-05-07T16:00:11.527Z,21.90
2023-05-07T16:02:42.776Z,22.00
2023-05-07T16:05:11.154Z,22.00
2023-05-07T16:07:38.988Z,21.90
2023-05-07T16:10:08.347Z,21.70
2023-05-07T16:12:35.427Z,21.70
2023-05-07T16:15:03.244Z,21.60
2023-05-07T16:17:30.535Z,21.70
2023-05-07T16:19:59.195Z,21.50
2023-05-07T16:22:26.735Z,21.20
2023-05-07T16:24:53.718Z,21.10
2023-05-07T16:27:20.893Z,21.00
2023-05-07T16:29:48.252Z,21.20
2023-05-07T16:32:15.572Z,21.30
2023-05-07T16:34:42.580Z,21.30
2023-05-07T16:37:09.544Z,21.20
2023-05-07T16:39:36.556Z,21.20
2023-05-07T16:42:03.746Z,21.00
2023-05-07T16:44:30.909Z,21.10
2023-05-07T16:46:58.030Z,21.10
2023-05-07T16:49:25.090Z,20.90
2023-05-07T16:51:52.411Z,20.70
2023-05-07T16:54:19.519Z,20.50
2023-05-07T16:56:46.526Z,20.40
2023-05-07T16:59:13.571Z,20.10
2023-05-07T17:01:42.730Z,20.10
2023-05-07T17:04:10.040Z,19.90
2023-05-07T17:06:37.082Z,19.70
2023-05-07T17:09:04.089Z,19.50
2023-05-07T17:11:33.855Z,19.40
2023-05-07T17:14:02.461Z,19.40
2023-05-07T17:16:30.596Z,19.30
2023-05-07T17:18:57.697Z,19.10
2023-05-07T17:21:24.928Z,19.20
2023-05-07T17:23:52.077Z,19.20
2023-05-07T17:26:19.213Z,19.30
2023-05-07T17:28:46.402Z,19.30
2023-05-07T17:31:13.628Z,19.40
2023-05-07T17:33:40.666Z,19.50
2023-05-07T17:36:08.645Z,19.60
2023-05-07T17:38:35.975Z,19.60
2023-05-07T17:41:03.220Z,19.90
2023-05-07T17:43:30.394Z,19.90
2023-05-07T17:45:57.692Z,19.80
2023-05-07T17:48:24.918Z,19.60
2023-05-07T17:50:51.975Z,19.60
2023-05-07T17:53:19.306Z,19.50
2023-05-07T17:55:46.368Z,19.40
2023-05-07T17:58:13.374Z,19.30
2023-05-07T18:00:40.718Z,19.20
2023-05-07T18:03:07.970Z,19.10
2023-05-07T18:05:39.515Z,19.00
2023-05-07T18:08:09.443Z,19.00
2023-05-07T18:10:37.662Z,18.80
2023-05-07T18:13:04.904Z,18.70
2023-05-07T18:15:32.048Z,18.50
2023-05-07T18:17:59.258Z,18.40
2023-05-07T18:20:26.452Z,18.30
2023-05-07T18:22:53.506Z,18.20
2023-05-07T18:25:20.951Z,18.10
2023-05-07T18:27:47.970Z,18.00
2023-05-07T18:30:15.419Z,17.90
2023-05-07T18:32:42.570Z,17.80
2023-05-07T18:35:09.963Z,17.80
2023-05-07T18:37:37.006Z,17.70
2023-05-07T18:40:05.818Z,17.60
2023-05-07T18:42:35.310Z,17.50
2023-05-07T18:45:04.996Z,17.50
2023-05-07T18:47:32.411Z,17.40
2023-05-07T18:50:00.764Z,17.40
2023-05-07T18:52:29.110Z,17.20
2023-05-07T18:54:57.467Z,17.20
2023-05-07T18:57:24.796Z,17.10
2023-05-07T18:59:57.933Z,17.00
2023-05-07T19:02:25.126Z,16.90
2023-05-07T19:04:52.380Z,16.80
2023-05-07T19:07:19.575Z,16.70
2023-05-07T19:10:01.110Z,16.60
2023-05-07T19:12:31.077Z,16.50
2023-05-07T19:14:58.217Z,16.40
2023-05-07T19:17:25.436Z,16.40
2023-05-07T19:19:52.625Z,16.20
2023-05-07T19:22:19.740Z,16.20
2023-05-07T19:24:46.852Z,16.10
2023-05-07T19:27:14.009Z,16.00
2023-05-07T19:29:41.313Z,15.90
2023-05-07T19:32:08.556Z,15.80
2023-05-07T19:34:35.923Z,15.70
2023-05-07T19:37:02.963Z,15.60
2023-05-07T19:39:30.048Z,15.60
2023-05-07T19:41:57.149Z,15.60
2023-05-07T19:44:25.050Z,15.50
2023-05-07T19:46:52.702Z,15.40
2023-05-07T19:49:19.903Z,15.40
2023-05-07T19:51:47.008Z,15.30
2023-05-07T19:54:14.270Z,15.30
2023-05-07T19:56:41.995Z,15.20
2023-05-07T19:59:09.209Z,15.20
2023-05-07T20:01:36.745Z,15.10
2023-05-07T20:04:04.385Z,15.00
2023-05-07T20:06:31.552Z,15.00
2023-05-07T20:08:58.508Z,14.90
2023-05-07T20:11:25.669Z,14.90
2023-05-07T20:13:52.744Z,14.80
2023-05-07T20:16:19.982Z,14.80
2023-05-07T20:18:47.111Z,14.70
2023-05-07T20:21:14.177Z,14.70
2023-05-07T20:23:41.471Z,14.60
2023-05-07T20:26:08.604Z,14.60
2023-05-07T20:28:35.837Z,14.50
2023-05-07T20:31:03.523Z,14.50
2023-05-07T20:33:30.602Z,14.40
2023-05-07T20:36:00.562Z,14.30
2023-05-07T20:38:28.485Z,14.20
2023-05-07T20:40:55.704Z,14.20
2023-05-07T20:43:22.900Z,14.20
2023-05-07T20:46:02.760Z,14.10
2023-05-07T20:48:30.791Z,14.10
2023-05-07T20:51:02.285Z,14.10
2023-05-07T20:53:31.210Z,14.00
2023-05-07T20:55:59.507Z,14.00
2023-05-07T20:58:28.704Z,13.90
2023-05-07T21:00:56.462Z,13.90
2023-05-07T21:03:24.030Z,13.90
2023-05-07T21:05:56.628Z,13.80
2023-05-07T21:08:24.125Z,13.80
2023-05-07T21:10:53.366Z,13.80
2023-05-07T21:13:20.755Z,13.80
2023-05-07T21:15:48.051Z,13.80
2023-05-07T21:18:16.045Z,13.80
2023-05-07T21:20:43.264Z,13.80
2023-05-07T21:23:10.463Z,13.80
2023-05-07T21:25:41.571Z,13.70
2023-05-07T21:28:09.134Z,13.70
2023-05-07T21:30:37.182Z,13.70
2023-05-07T21:33:07.666Z,13.70
2023-05-07T21:35:36.480Z,13.80
2023-05-07T21:38:03.976Z,13.70
2023-05-07T21:40:31.449Z,13.70
2023-05-07T21:43:02.310Z,13.70
2023-05-07T21:45:29.741Z,13.70
2023-05-07T21:47:57.168Z,13.70
2023-05-07T21:50:24.475Z,13.70
2023-05-07T21:52:51.884Z,13.70
2023-05-07T21:55:19.338Z,13.70
2023-05-07T21:58:01.149Z,13.70
2023-05-07T22:00:32.837Z,13.70
2023-05-07T22:03:00.756Z,13.70
2023-05-07T22:05:28.303Z,13.70
2023-05-07T22:07:55.519Z,13.70
2023-05-07T22:10:22.957Z,13.60
2023-05-07T22:12:50.626Z,13.60
2023-05-07T22:15:18.197Z,13.60
2023-05-07T22:17:45.441Z,13.60
2023-05-07T22:20:13.174Z,13.60
2023-05-07T22:22:53.011Z,13.50
2023-05-07T22:25:24.833Z,13.50
2023-05-07T22:27:52.578Z,13.40
2023-05-07T22:30:19.721Z,13.40
2023-05-07T22:32:47.006Z,13.40
2023-05-07T22:35:14.193Z,13.40
2023-05-07T22:37:41.277Z,13.40
2023-05-07T22:40:09.118Z,13.40
2023-05-07T22:42:36.249Z,13.30
2023-05-07T22:45:03.962Z,13.30
2023-05-07T22:47:31.403Z,13.30
2023-05-07T22:49:58.649Z,13.30
2023-05-07T22:52:25.796Z,13.30
2023-05-07T22:54:53.002Z,13.20
2023-05-07T22:57:20.161Z,13.20
2023-05-07T22:59:47.207Z,13.10
2023-05-07T23:02:14.510Z,13.20
2023-05-07T23:04:41.985Z,13.10
2023-05-07T23:07:11.518Z,13.10
2023-05-07T23:09:38.734Z,13.00
2023-05-07T23:12:06.200Z,13.00
2023-05-07T23:14:33.315Z,13.00
2023-05-07T23:17:00.359Z,12.90
2023-05-07T23:19:27.481Z,12.90
2023-05-07T23:21:54.637Z,12.80
2023-05-07T23:24:21.658Z,12.80
2023-05-07T23:26:48.830Z,12.80
2023-05-07T23:29:15.781Z,12.70
2023-05-07T23:31:43.759Z,12.70
2023-05-07T23:34:10.861Z,12.70
2023-05-07T23:36:37.910Z,12.70
2023-05-07T23:39:05.115Z,12.60
2023-05-07T23:41:32.334Z,12.60
2023-05-07T23:43:59.497Z,12.60
2023-05-07T23:46:26.955Z,12.50
2023-05-07T23:48:54.107Z,12.50
2023-05-07T23:51:21.261Z,12.50
2023-05-07T23:53:48.430Z,12.40
2023-05-07T23:56:16.233Z,12.40
2023-05-07T23:58:43.415Z,12.30
